• Join FlightAware (Why Join?)
  • Login
  • US Flag 
09:25AM EDT


 

Airport Tracker/Info


-or-


 

Live Flight TrackerFlight Track Log ✈ AWE1940 ✈ 14-Jun-2013 ✈ KCLT - KALB

Flight Track Log - Related Links

Times and Time Zones

All times are in EDT time to prevent confusion due to time zone crossing. See the AWE1940 flight status page for this flight to view local times or setup timezone preferences in your user account.

Time Position Orientation Groundspeed Altitude Reporting Facility
EDT Latitude Longitude Course Direction KTS MPH feet Rate Location/Type
10:27PM 35.2283 -80.9394 30° Northeast 161 185 1,400  Level Atlanta Center
10:28PM 35.2775 -80.8994 34° Northeast 228 262 3,600 2,040 Climbing Atlanta Center
10:29PM 35.2958 -80.8044 77° East 265 305 6,400 2,520 Climbing Atlanta Center
10:30PM 35.1000 -80.6407 90° East  Level FlightAware Approximate
10:30PM 35.3122 -80.7122 78° East 278 320 9,200  Level Atlanta Center
10:31PM 35.1856 -80.5763 29° Northeast  Level FlightAware Approximate
10:31PM 35.3325 -80.6147 76° East 286 329 11,200  Level Atlanta Center
10:32PM 35.2753 -80.5129 30° Northeast  Level FlightAware Approximate
10:34PM 35.3847 -80.3639 76° East 362 417 15,400  Level Washington Center
10:35PM 35.4108 -80.2353 76° East 373 429 17,900 2,280 Climbing Washington Center
10:36PM 35.4408 -80.1019 75° East 389 448 20,000 1,980 Climbing Washington Center
10:37PM 35.4772 -79.9689 71° East 400 460 21,900 1,860 Climbing Washington Center
10:38PM 35.5136 -79.8281 72° East 411 473 23,700 1,920 Climbing Washington Center
10:39PM 35.5500 -79.6819 73° East 426 490 25,800 1,860 Climbing Washington Center
10:40PM 35.5950 -79.5156 72° East 448 516 27,500 1,920 Climbing Washington Center
10:41PM 35.6306 -79.3894 71° East 456 525 29,600 1,980 Climbing Washington Center
10:42PM 35.6847 -79.2617 62° Northeast 434 499 31,400 1,500 Climbing Washington Center
10:43PM 35.7364 -79.1308 64° Northeast 423 487 32,700 1,140 Climbing Washington Center
10:44PM 35.7906 -78.9978 63° Northeast 423 487 33,700 1,020 Climbing Washington Center
10:45PM 35.8444 -78.8617 64° Northeast 423 487 34,800 600 Climbing Washington Center
10:46PM 35.9019 -78.7333 61° Northeast 423 487 35,000 60 Climbing Washington Center
10:47PM 35.9636 -78.6100 58° Northeast 423 487 35,000  Level Washington Center
10:48PM 36.0231 -78.4864 59° Northeast 423 487 35,000  Level Washington Center
10:49PM 36.0822 -78.3600 60° Northeast 423 487 35,000  Level Washington Center
10:50PM 36.1436 -78.2336 59° Northeast 418 481 35,000  Level Washington Center
10:51PM 36.2025 -78.1119 59° Northeast 413 475 35,000  Level Washington Center
10:52PM 36.2636 -77.9825 60° Northeast 413 475 35,000  Level Washington Center
10:53PM 36.3225 -77.8581 60° Northeast 413 475 35,000  Level Washington Center
10:54PM 36.3853 -77.7283 59° Northeast 413 475 35,000  Level Washington Center
10:55PM 36.4397 -77.6006 62° Northeast 413 475 35,000  Level Washington Center
10:56PM 36.5089 -77.4578 59° Northeast 418 481 35,000  Level Washington Center
10:57PM 36.5692 -77.3272 60° Northeast 423 487 35,000  Level Washington Center
10:58PM 36.6294 -77.1967 60° Northeast 428 493 35,000  Level Washington Center
10:59PM 36.6894 -77.0658 60° Northeast 428 493 35,000  Level Washington Center
11:00PM 36.7700 -76.9583 47° Northeast 423 487 35,000  Level Washington Center
11:01PM 36.8669 -76.8719 35° Northeast 418 481 35,000  Level Washington Center
11:02PM 36.9639 -76.7875 35° Northeast 418 481 35,000  Level Washington Center
11:03PM 37.0583 -76.7006 36° Northeast 418 481 35,000  Level Washington Center
11:04PM 37.1531 -76.6133 36° Northeast 418 481 35,000  Level Washington Center
11:05PM 37.2392 -76.5361 36° Northeast 418 481 35,000  Level Washington Center
11:06PM 37.3339 -76.4511 35° Northeast 418 481 35,000  Level Washington Center
11:07PM 37.4283 -76.3633 36° Northeast 418 481 35,000  Level Washington Center
11:08PM 37.5247 -76.2753 36° Northeast 418 481 35,000  Level Washington Center
11:09PM 37.6189 -76.1869 37° Northeast 418 481 35,000  Level Washington Center
11:10PM 37.7278 -76.0933 34° Northeast 418 481 35,000  Level Washington Center
11:11PM 37.8136 -76.0097 38° Northeast 424 488 35,000  Level Washington Center
11:12PM 37.9100 -75.9208 36° Northeast 435 501 35,000  Level Washington Center
11:13PM 38.0103 -75.8317 35° Northeast 435 501 35,000  Level Washington Center
11:14PM 38.1147 -75.7528 31° Northeast 435 501 35,000  Level Washington Center
11:15PM 38.2189 -75.6764 30° Northeast 430 495 35,000  Level Washington Center
11:16PM 38.3336 -75.5864 32° Northeast 430 495 35,000  Level Washington Center
11:17PM 38.4378 -75.5147 28° Northeast 425 489 35,000  Level Washington Center
11:18PM 38.5419 -75.4325 32° Northeast 425 489 35,000 -60 Level Washington Center
11:19PM 38.6461 -75.3497 32° Northeast 430 495 34,900  Descending Washington Center
11:20PM 38.7522 -75.2775 28° Northeast 430 495 35,000  Climbing Washington Center
11:21PM 38.8564 -75.1919 33° Northeast 424 488 35,000  Level Washington Center
11:22PM 38.9561 -75.1111 32° Northeast 424 488 35,000  Level Washington Center
11:23PM 39.0578 -75.0303 32° Northeast 424 488 35,000  Level Washington Center
11:24PM 39.1617 -74.9597 28° Northeast 424 488 35,000  Level Washington Center
11:25PM 39.2614 -74.8786 32° Northeast 424 488 35,000  Level Washington Center
11:26PM 39.3608 -74.7997 32° Northeast 424 488 35,000  Level Washington Center
11:27PM 39.4644 -74.7178 31° Northeast 424 488 35,000  Level Washington Center
11:28PM 39.5639 -74.6386 32° Northeast 424 488 35,000 -60 Level Washington Center
11:29PM 39.6653 -74.5564 32° Northeast 424 488 34,900  Descending Washington Center
11:30PM 39.7686 -74.4739 32° Northeast 424 488 35,000 -660 Climbing Washington Center
11:31PM 39.8658 -74.3967 31° Northeast 424 488 33,600 -1,440 Descending Washington Center
11:31PM 39.8853 -74.3850 25° Northeast 438 504 33,200 -1,440 Descending New York Center
11:32PM 39.9792 -74.3086 32° Northeast 430 495 31,800 -1,440 Descending New York Center
11:33PM 40.0775 -74.2297 32° Northeast 415 478 30,400 -1,200 Descending New York Center
11:34PM 40.1778 -74.1531 30° Northeast 415 478 29,400 -780 Descending New York Center
11:35PM 40.2717 -74.0733 33° Northeast 415 478 28,900 -240 Descending New York Center
11:36PM 40.3678 -73.9936 32° Northeast 415 478 29,000  Climbing New York Center
11:37PM 40.4656 -73.9192 30° Northeast 415 478 29,000  Level New York Center
11:38PM 40.6144 -73.7989 32° Northeast 406 467 29,000 -360 Level Boston Center
11:39PM 40.7133 -73.7161 32° Northeast 411 473 28,100 -1,440 Descending Boston Center
11:40PM 40.8061 -73.6356 33° Northeast 406 467 26,200 -2,160 Descending Boston Center
11:41PM 40.9006 -73.5714 27° Northeast 392 451 23,800 -1,680 Descending Boston Center
11:42PM 41.0128 -73.5872 354° North 372 428 22,900 -420 Descending Boston Center
11:43PM 41.1211 -73.6000 355° North 379 436 23,000  Climbing Boston Center
11:44PM 41.2294 -73.6131 355° North 386 444 23,000 -300 Level Boston Center
11:45PM 41.3397 -73.6261 355° North 386 444 22,400 -840 Descending Boston Center
11:46PM 41.4458 -73.6392 355° North 386 444 21,400 -660 Descending Boston Center
11:47PM 41.5603 -73.6553 354° North 380 437 21,100 -300 Descending Boston Center
11:48PM 41.6664 -73.6683 355° North 380 437 20,900 -1,500 Descending Boston Center
11:49PM 41.7747 -73.6817 355° North 385 443 18,100 -2,820 Descending Boston Center
11:50PM 41.8286 -73.6883 355° North 382 440 16,800 -2,340 Descending Boston Center
11:50PM 41.8642 -73.6889 359° North 377 434 15,800 -2,220 Descending Boston Center
11:51PM 41.9744 -73.7022 355° North 365 420 13,500 -1,860 Descending Boston Center
11:52PM 42.0536 -73.7150 353° North 358 412 12,100 -1,320 Descending Boston Center
11:53PM 42.1639 -73.7286 355° North 345 397 10,900 -900 Descending Boston Center
11:54PM 42.2408 -73.7386 355° North 314 361 10,300 -1,380 Descending Boston Center
11:56PM 42.3322 -73.7544 353° North 259 298 8,000 -1,740 Descending Boston Center
11:56PM 42.3283 -73.7517 152° Southeast 270 311 7,900 -2,160 Descending Boston Center
11:56PM 42.3989 -73.7642 353° North 263 303 6,100 -2,400 Descending Boston Center
11:57PM 42.4219 -73.7647 359° North 265 305 5,500 -1,680 Descending Boston Center
11:57PM 42.4697 -73.7742 352° North 256 295 4,400 -1,740 Descending Boston Center
11:58PM 42.4925 -73.7747 359° North 254 292 3,800 -1,200 Descending Boston Center
11:58PM 42.5342 -73.7842 351° North 233 268 3,200 -1,140 Descending Boston Center
11:59PM 42.5550 -73.7844 359° North 236 272 2,700 -600 Descending Boston Center
11:59PM 42.5925 -73.7939 349° North 207 238 2,600 -420 Descending Boston Center
12:00AM 42.6111 -73.7942 359° North 213 245 2,300 -540 Descending Boston Center
12:00AM 42.6403 -73.8006 351° North 167 192 2,100 -240 Descending Boston Center
12:01AM 42.6589 -73.8036 353° North 197 227 2,100 -720 Level Boston Center
12:01AM 42.6819 -73.8014 North 136 157 1,400 -1,020 Descending Boston Center